Terminal Aerodrome Forecast
Issued by NWS

Home | Current Version | Previous Version | Text Only | Print | Product List | Glossary On
Versions: 1 2 3 4 5 6 7 8 9 10 11 12 13 14 15 16 17 18 19 20 21 22 23 24
000
FTUS41 KBUF 051120
TAFIAG
TAF
KIAG 051120Z 0512/0612 05009KT P6SM SCT005 OVC012
     FM051300 05010KT P6SM BKN025
     FM051500 04012KT P6SM BKN040
     FM052300 02007KT P6SM BKN040
     FM060300 34005KT P6SM BKN050
     FM060900 34005KT P6SM BKN200=

USA.gov is the U.S. government's official web portal to all federal, state and local government web resources and services.